createdAt,value
2023-08-19T00:02:01.910Z,6.13
2023-08-19T00:04:28.510Z,6.22
2023-08-19T00:06:54.996Z,6.68
2023-08-19T00:09:21.496Z,6.33
2023-08-19T00:11:48.038Z,6.20
2023-08-19T00:14:14.536Z,6.24
2023-08-19T00:16:41.091Z,6.35
2023-08-19T00:19:07.655Z,6.56
2023-08-19T00:21:34.155Z,6.45
2023-08-19T00:24:00.679Z,6.20
2023-08-19T00:26:27.196Z,6.26
2023-08-19T00:28:53.677Z,6.51
2023-08-19T00:31:20.216Z,6.76
2023-08-19T00:33:46.795Z,6.35
2023-08-19T00:36:13.335Z,6.55
2023-08-19T00:38:39.819Z,6.25
2023-08-19T00:41:06.372Z,6.74
2023-08-19T00:43:32.861Z,6.70
2023-08-19T00:45:59.460Z,6.36
2023-08-19T00:48:26.042Z,6.27
2023-08-19T00:50:52.518Z,6.68
2023-08-19T00:53:19.020Z,6.82
2023-08-19T00:55:45.559Z,6.77
2023-08-19T00:58:12.045Z,6.56
2023-08-19T01:00:38.527Z,6.14
2023-08-19T01:03:05.083Z,6.75
2023-08-19T01:05:31.615Z,6.37
2023-08-19T01:07:58.099Z,6.39
2023-08-19T01:10:24.636Z,6.13
2023-08-19T01:12:51.127Z,6.31
2023-08-19T01:15:17.616Z,6.62
2023-08-19T01:17:44.162Z,6.88
2023-08-19T01:20:10.693Z,6.49
2023-08-19T01:22:37.184Z,6.84
2023-08-19T01:25:03.711Z,6.73
2023-08-19T01:27:30.620Z,6.60
2023-08-19T01:29:57.284Z,6.44
2023-08-19T01:32:23.769Z,6.51
2023-08-19T01:34:50.248Z,6.70
2023-08-19T01:37:16.746Z,6.67
2023-08-19T01:39:43.242Z,6.71
2023-08-19T01:42:09.723Z,6.77
2023-08-19T01:44:36.215Z,6.51
2023-08-19T01:47:02.703Z,6.78
2023-08-19T01:49:29.178Z,6.99
2023-08-19T01:51:55.664Z,6.68
2023-08-19T01:54:22.163Z,6.53
2023-08-19T01:56:48.642Z,6.56
2023-08-19T01:59:15.150Z,6.42
2023-08-19T02:01:41.676Z,6.60
2023-08-19T02:04:08.240Z,6.84
2023-08-19T02:06:34.716Z,6.92
2023-08-19T02:09:01.228Z,6.96
2023-08-19T02:11:27.744Z,6.66
2023-08-19T02:13:54.223Z,6.48
2023-08-19T02:16:20.721Z,6.59
2023-08-19T02:18:47.198Z,6.44
2023-08-19T02:21:13.673Z,7.20
2023-08-19T02:23:40.182Z,6.75
2023-08-19T02:26:06.702Z,6.16
2023-08-19T02:28:33.202Z,6.81
2023-08-19T02:30:59.709Z,6.45
2023-08-19T02:33:26.200Z,7.14
2023-08-19T02:35:52.682Z,6.53
2023-08-19T02:38:19.196Z,6.80
2023-08-19T02:40:45.720Z,6.71
2023-08-19T02:43:12.208Z,6.84
2023-08-19T02:45:38.712Z,6.85
2023-08-19T02:48:05.312Z,7.03
2023-08-19T02:50:31.863Z,6.59
2023-08-19T02:52:58.385Z,6.95
2023-08-19T02:55:24.879Z,6.98
2023-08-19T02:57:51.390Z,7.24
2023-08-19T03:00:17.931Z,6.77
2023-08-19T03:02:44.498Z,7.04
2023-08-19T03:05:11.050Z,7.02
2023-08-19T03:07:37.560Z,7.35
2023-08-19T03:10:04.036Z,7.35
2023-08-19T03:12:30.522Z,7.43
2023-08-19T03:14:57.025Z,7.28
2023-08-19T03:17:23.522Z,7.25
2023-08-19T03:19:50.038Z,7.73
2023-08-19T03:22:16.527Z,7.06
2023-08-19T03:24:43.007Z,7.42
2023-08-19T03:27:09.485Z,6.86
2023-08-19T03:29:36.022Z,6.66
2023-08-19T03:32:02.558Z,7.22
2023-08-19T03:34:29.098Z,7.26
2023-08-19T03:36:55.624Z,7.17
2023-08-19T03:39:22.113Z,6.95
2023-08-19T03:41:48.586Z,7.13
2023-08-19T03:44:15.086Z,6.98
2023-08-19T03:46:41.586Z,6.69
2023-08-19T03:49:08.077Z,7.12
2023-08-19T03:51:34.613Z,7.28
2023-08-19T03:54:01.132Z,7.40
2023-08-19T03:56:27.610Z,7.17
2023-08-19T03:58:54.128Z,7.43
2023-08-19T04:01:20.638Z,7.49
2023-08-19T04:03:47.240Z,7.38
2023-08-19T04:06:13.780Z,6.97
2023-08-19T04:08:40.292Z,7.21
2023-08-19T04:11:06.769Z,7.11
2023-08-19T04:13:33.297Z,7.07
2023-08-19T04:15:59.816Z,7.44
2023-08-19T04:18:26.314Z,7.31
2023-08-19T04:20:52.826Z,7.14
2023-08-19T04:23:19.299Z,7.15
2023-08-19T04:25:45.784Z,7.22
2023-08-19T04:28:12.326Z,7.36
2023-08-19T04:30:38.882Z,7.03
2023-08-19T04:33:05.446Z,7.20
2023-08-19T04:35:32.020Z,7.34
2023-08-19T04:37:58.499Z,6.89
2023-08-19T04:40:24.972Z,7.10
2023-08-19T04:42:51.503Z,7.70
2023-08-19T04:45:18.022Z,7.27
2023-08-19T04:47:44.567Z,6.90
2023-08-19T04:50:11.154Z,7.13
2023-08-19T04:52:37.630Z,7.26
2023-08-19T04:55:04.108Z,7.48
2023-08-19T04:57:30.884Z,6.86
2023-08-19T04:59:57.571Z,7.04
2023-08-19T05:02:24.060Z,7.33
2023-08-19T05:04:50.558Z,7.46
2023-08-19T05:07:17.035Z,7.49
2023-08-19T05:09:43.517Z,7.23
2023-08-19T05:12:10.079Z,7.46
2023-08-19T05:14:36.586Z,7.42
2023-08-19T05:17:03.072Z,7.51
2023-08-19T05:19:29.571Z,7.49
2023-08-19T05:21:56.086Z,7.08
2023-08-19T05:24:22.580Z,7.40
2023-08-19T05:26:49.080Z,7.41
2023-08-19T05:29:15.583Z,7.32
2023-08-19T05:31:42.117Z,7.14
2023-08-19T05:34:08.688Z,7.69
2023-08-19T05:36:35.178Z,7.54
2023-08-19T05:39:01.662Z,7.67
2023-08-19T05:41:28.162Z,7.49
2023-08-19T05:43:54.688Z,7.08
2023-08-19T05:46:21.222Z,7.55
2023-08-19T05:48:47.750Z,7.37
2023-08-19T05:51:14.244Z,7.41
2023-08-19T05:53:40.724Z,7.52
2023-08-19T05:56:07.228Z,7.44
2023-08-19T05:58:33.720Z,7.75
2023-08-19T06:01:00.251Z,7.09
2023-08-19T06:03:26.955Z,7.64
2023-08-19T06:05:53.658Z,7.55
2023-08-19T06:08:20.141Z,7.62
2023-08-19T06:10:46.657Z,7.53
2023-08-19T06:13:13.144Z,7.74
2023-08-19T06:15:39.698Z,7.45
2023-08-19T06:18:06.264Z,7.72
2023-08-19T06:20:32.783Z,7.66
2023-08-19T06:22:59.270Z,7.69
2023-08-19T06:25:25.788Z,8.55
2023-08-19T06:27:52.303Z,8.27
2023-08-19T06:30:18.805Z,7.96
2023-08-19T06:32:45.379Z,7.87
2023-08-19T06:35:11.891Z,7.95
2023-08-19T06:37:38.371Z,8.11
2023-08-19T06:40:04.882Z,7.54
2023-08-19T06:42:31.366Z,7.70
2023-08-19T06:44:57.849Z,7.80
2023-08-19T06:47:27.809Z,7.27
2023-08-19T06:49:54.359Z,7.68
2023-08-19T06:52:20.844Z,8.00
2023-08-19T06:54:47.389Z,7.65
2023-08-19T06:57:13.906Z,8.05
2023-08-19T06:59:40.400Z,7.77
2023-08-19T07:02:06.983Z,7.89
2023-08-19T07:04:33.682Z,7.66
2023-08-19T07:07:00.170Z,7.71
2023-08-19T07:09:26.665Z,7.47
2023-08-19T07:11:53.157Z,7.46
2023-08-19T07:14:19.649Z,7.21
2023-08-19T07:16:46.345Z,7.16
2023-08-19T07:19:12.903Z,7.44
2023-08-19T07:21:39.393Z,7.63
2023-08-19T07:24:06.210Z,7.43
2023-08-19T07:26:32.699Z,7.33
2023-08-19T07:28:59.177Z,7.43
2023-08-19T07:31:25.704Z,7.49
2023-08-19T07:33:52.180Z,7.20
2023-08-19T07:36:18.740Z,7.19
2023-08-19T07:38:45.243Z,7.32
2023-08-19T07:41:11.724Z,7.13
2023-08-19T07:43:38.213Z,7.14
2023-08-19T07:46:04.798Z,7.30
2023-08-19T07:48:31.301Z,7.20
2023-08-19T07:50:57.773Z,7.53
2023-08-19T07:53:24.268Z,7.07
2023-08-19T07:55:50.767Z,7.11
2023-08-19T07:58:17.245Z,7.49
2023-08-19T08:00:43.744Z,7.03
2023-08-19T08:03:10.333Z,7.31
2023-08-19T08:05:36.902Z,7.21
2023-08-19T08:08:03.438Z,7.26
2023-08-19T08:10:29.934Z,7.22
2023-08-19T08:12:56.417Z,7.49
2023-08-19T08:15:22.953Z,7.24
2023-08-19T08:17:49.443Z,7.37
2023-08-19T08:20:15.968Z,7.37
2023-08-19T08:22:42.460Z,7.14
2023-08-19T08:25:08.958Z,7.33
2023-08-19T08:27:35.678Z,7.44
2023-08-19T08:30:02.539Z,7.42
2023-08-19T08:32:29.072Z,7.55
2023-08-19T08:34:55.580Z,7.12
2023-08-19T08:37:22.110Z,7.35
2023-08-19T08:39:48.643Z,6.89
2023-08-19T08:42:15.142Z,7.68
2023-08-19T08:44:41.653Z,7.00
2023-08-19T08:47:08.158Z,7.16
2023-08-19T08:49:34.632Z,7.24
2023-08-19T08:52:01.126Z,6.95
2023-08-19T08:54:27.770Z,7.64
2023-08-19T08:56:54.251Z,7.16
2023-08-19T08:59:20.816Z,7.33
2023-08-19T09:01:47.354Z,7.33
2023-08-19T09:04:13.864Z,7.37
2023-08-19T09:06:40.368Z,7.42
2023-08-19T09:09:06.852Z,7.33
2023-08-19T09:11:33.370Z,7.31
2023-08-19T09:13:59.866Z,7.43
2023-08-19T09:16:26.354Z,7.79
2023-08-19T09:18:52.841Z,7.23
2023-08-19T09:21:19.337Z,7.37
2023-08-19T09:23:45.819Z,7.37
2023-08-19T09:26:12.341Z,7.28
2023-08-19T09:28:38.842Z,7.41
2023-08-19T09:31:05.381Z,7.55
2023-08-19T09:33:31.878Z,7.14
2023-08-19T09:35:59.857Z,7.28
2023-08-19T09:38:26.611Z,7.51
2023-08-19T09:40:53.083Z,7.91
2023-08-19T09:43:19.603Z,7.83
2023-08-19T09:45:46.094Z,7.87
2023-08-19T09:48:12.570Z,7.75
2023-08-19T09:50:39.066Z,7.50
2023-08-19T09:53:05.552Z,7.67
2023-08-19T09:55:32.046Z,7.50
2023-08-19T09:57:58.538Z,7.55
2023-08-19T10:00:25.058Z,7.75
2023-08-19T10:02:51.585Z,7.36
2023-08-19T10:05:18.226Z,7.64
2023-08-19T10:07:44.699Z,7.75
2023-08-19T10:10:11.195Z,7.78
2023-08-19T10:12:41.383Z,7.44
2023-08-19T10:15:07.918Z,7.54
2023-08-19T10:17:34.487Z,7.68
2023-08-19T10:20:01.045Z,7.90
2023-08-19T10:22:27.684Z,7.59
2023-08-19T10:24:54.158Z,7.73
2023-08-19T10:27:20.726Z,7.61
2023-08-19T10:29:47.199Z,7.44
2023-08-19T10:32:13.689Z,7.73
2023-08-19T10:34:40.195Z,7.75
2023-08-19T10:37:06.689Z,7.47
2023-08-19T10:39:33.174Z,7.55
2023-08-19T10:41:59.693Z,7.68
2023-08-19T10:44:26.177Z,7.48
2023-08-19T10:46:52.655Z,7.31
2023-08-19T10:49:19.170Z,7.53
2023-08-19T10:51:45.684Z,7.49
2023-08-19T10:54:12.172Z,7.75
2023-08-19T10:56:38.684Z,7.60
2023-08-19T10:59:05.153Z,7.54
2023-08-19T11:01:31.668Z,7.38
2023-08-19T11:03:58.266Z,7.46
2023-08-19T11:06:24.773Z,7.35
2023-08-19T11:08:51.247Z,7.59
2023-08-19T11:11:18.128Z,7.60
2023-08-19T11:13:44.627Z,7.67
2023-08-19T11:16:11.128Z,7.68
2023-08-19T11:18:37.664Z,7.57
2023-08-19T11:21:04.152Z,7.54
2023-08-19T11:23:30.631Z,7.93
2023-08-19T11:25:57.145Z,7.79
2023-08-19T11:28:23.646Z,7.90
2023-08-19T11:30:50.167Z,7.99
2023-08-19T11:33:16.744Z,7.87
2023-08-19T11:35:43.270Z,7.83
2023-08-19T11:38:09.820Z,7.96
2023-08-19T11:40:42.944Z,8.07
2023-08-19T11:43:09.442Z,7.81
2023-08-19T11:45:35.987Z,7.79
2023-08-19T11:48:04.365Z,7.50
2023-08-19T11:50:30.844Z,7.98
2023-08-19T11:52:57.328Z,7.98
2023-08-19T11:55:23.867Z,7.95
2023-08-19T11:57:50.376Z,7.90
2023-08-19T12:00:16.926Z,8.26
2023-08-19T12:02:43.470Z,7.92
2023-08-19T12:05:09.996Z,7.94
2023-08-19T12:07:36.488Z,8.00
2023-08-19T12:10:03.010Z,8.19
2023-08-19T12:12:29.524Z,7.81
2023-08-19T12:14:56.009Z,7.80
2023-08-19T12:17:22.503Z,7.81
2023-08-19T12:19:48.986Z,7.76
2023-08-19T12:22:15.472Z,7.97
2023-08-19T12:24:44.413Z,8.33
2023-08-19T12:27:11.308Z,7.78
2023-08-19T12:29:37.795Z,8.05
2023-08-19T12:32:04.318Z,8.20
2023-08-19T12:34:30.801Z,8.17
2023-08-19T12:36:58.869Z,8.42
2023-08-19T12:39:26.331Z,8.60
2023-08-19T12:41:52.837Z,8.49
2023-08-19T12:44:19.385Z,8.47
2023-08-19T12:46:45.905Z,8.31
2023-08-19T12:49:12.419Z,8.26
2023-08-19T12:51:38.899Z,8.26
2023-08-19T12:54:05.418Z,8.67
2023-08-19T12:56:31.902Z,7.90
2023-08-19T12:58:58.441Z,8.04
2023-08-19T13:01:24.976Z,8.25
2023-08-19T13:03:51.522Z,8.29
2023-08-19T13:06:18.027Z,8.06
2023-08-19T13:08:44.572Z,8.10
2023-08-19T13:11:11.090Z,8.49
2023-08-19T13:13:37.627Z,8.01
2023-08-19T13:16:04.166Z,8.68
2023-08-19T13:18:30.663Z,8.15
2023-08-19T13:20:57.155Z,8.53
2023-08-19T13:23:23.687Z,8.41
2023-08-19T13:25:50.175Z,8.10
2023-08-19T13:28:16.660Z,8.07
2023-08-19T13:30:43.196Z,8.03
2023-08-19T13:33:09.763Z,8.40
2023-08-19T13:35:36.414Z,8.15
2023-08-19T13:38:02.916Z,8.03
2023-08-19T13:40:29.386Z,8.08
2023-08-19T13:42:55.854Z,8.07
2023-08-19T13:45:32.131Z,8.20
2023-08-19T13:48:13.315Z,8.02
2023-08-19T13:50:41.145Z,8.23
2023-08-19T13:53:07.685Z,7.99
2023-08-19T13:55:34.183Z,7.97
2023-08-19T13:58:00.714Z,7.89
2023-08-19T14:00:27.256Z,7.98
2023-08-19T14:02:53.830Z,7.82
2023-08-19T14:05:26.863Z,8.17
2023-08-19T14:07:53.334Z,8.11
2023-08-19T14:10:19.993Z,8.23
2023-08-19T14:12:46.528Z,7.96
2023-08-19T14:15:13.024Z,7.79
2023-08-19T14:17:39.754Z,8.03
2023-08-19T14:20:08.011Z,8.06
2023-08-19T14:22:34.770Z,8.12
2023-08-19T14:25:01.246Z,7.79
2023-08-19T14:27:27.743Z,7.99
2023-08-19T14:29:54.270Z,8.00
2023-08-19T14:32:20.854Z,7.90
2023-08-19T14:34:47.401Z,8.06
2023-08-19T14:37:13.904Z,7.72
2023-08-19T14:39:40.391Z,7.76
2023-08-19T14:42:06.903Z,7.86
2023-08-19T14:44:33.394Z,8.12
2023-08-19T14:46:59.909Z,8.35
2023-08-19T14:49:26.402Z,8.04
2023-08-19T14:51:52.978Z,8.13
2023-08-19T14:54:19.481Z,7.97
2023-08-19T14:56:46.005Z,8.08
2023-08-19T14:59:12.492Z,7.79
2023-08-19T15:01:39.023Z,8.01
2023-08-19T15:04:05.826Z,7.71
2023-08-19T15:06:32.398Z,7.38
2023-08-19T15:08:58.900Z,7.64
2023-08-19T15:11:25.401Z,7.64
2023-08-19T15:13:51.956Z,7.42
2023-08-19T15:16:18.462Z,7.38
2023-08-19T15:18:44.981Z,7.37
2023-08-19T15:21:11.476Z,7.39
2023-08-19T15:23:37.976Z,7.41
2023-08-19T15:26:04.484Z,7.18
2023-08-19T15:28:30.967Z,7.06
2023-08-19T15:30:57.447Z,7.31
2023-08-19T15:33:23.979Z,7.42
2023-08-19T15:35:50.472Z,7.49
2023-08-19T15:38:16.977Z,7.02
2023-08-19T15:40:43.480Z,7.53
2023-08-19T15:43:09.954Z,6.95
2023-08-19T15:45:36.475Z,6.96
2023-08-19T15:48:03.058Z,7.11
2023-08-19T15:50:29.540Z,7.08
2023-08-19T15:52:56.021Z,7.48
2023-08-19T15:55:22.541Z,7.09
2023-08-19T15:57:49.028Z,7.00
2023-08-19T16:00:15.710Z,6.94
2023-08-19T16:02:42.397Z,6.43
2023-08-19T16:05:08.908Z,6.91
2023-08-19T16:07:35.695Z,7.06
2023-08-19T16:10:02.509Z,6.84
2023-08-19T16:12:29.027Z,6.68
2023-08-19T16:14:55.526Z,6.51
2023-08-19T16:17:22.025Z,6.81
2023-08-19T16:19:49.117Z,6.68
2023-08-19T16:22:15.654Z,6.79
2023-08-19T16:24:42.198Z,6.65
2023-08-19T16:27:08.695Z,6.28
2023-08-19T16:29:35.200Z,6.47
2023-08-19T16:32:01.696Z,6.35
2023-08-19T16:34:28.178Z,6.31
2023-08-19T16:36:54.681Z,6.46
2023-08-19T16:39:21.180Z,6.21
2023-08-19T16:41:47.694Z,6.49
2023-08-19T16:44:14.378Z,6.10
2023-08-19T16:46:40.888Z,6.41
2023-08-19T16:49:07.471Z,6.26
2023-08-19T16:51:33.949Z,6.12
2023-08-19T16:54:00.445Z,6.40
2023-08-19T16:56:26.923Z,6.44
2023-08-19T16:58:53.420Z,6.36
2023-08-19T17:01:19.919Z,6.22
2023-08-19T17:03:46.474Z,6.19
2023-08-19T17:06:12.954Z,6.08
2023-08-19T17:08:39.460Z,6.10
2023-08-19T17:11:05.948Z,6.42
2023-08-19T17:13:32.438Z,6.19
2023-08-19T17:15:59.014Z,5.94
2023-08-19T17:18:25.637Z,5.79
2023-08-19T17:20:52.122Z,6.21
2023-08-19T17:23:18.645Z,5.74
2023-08-19T17:25:45.154Z,5.86
2023-08-19T17:28:11.635Z,6.06
2023-08-19T17:30:38.174Z,5.58
2023-08-19T17:33:04.767Z,5.94
2023-08-19T17:35:31.251Z,5.73
2023-08-19T17:37:57.753Z,5.52
2023-08-19T17:40:24.269Z,5.82
2023-08-19T17:42:50.791Z,5.50
2023-08-19T17:45:17.310Z,5.77
2023-08-19T17:47:43.798Z,5.54
2023-08-19T17:50:10.300Z,5.83
2023-08-19T17:52:36.792Z,5.86
2023-08-19T17:55:03.282Z,5.64
2023-08-19T17:57:29.774Z,5.69
2023-08-19T17:59:56.298Z,5.82
2023-08-19T18:02:22.807Z,5.77
2023-08-19T18:04:49.293Z,5.39
2023-08-19T18:07:15.813Z,5.62
2023-08-19T18:09:42.290Z,5.64
2023-08-19T18:12:08.812Z,5.60
2023-08-19T18:14:37.773Z,5.45
2023-08-19T18:17:04.885Z,5.20
2023-08-19T18:19:31.354Z,5.36
2023-08-19T18:21:57.847Z,5.24
2023-08-19T18:24:24.360Z,5.37
2023-08-19T18:26:50.901Z,5.67
2023-08-19T18:29:17.404Z,5.37
2023-08-19T18:31:43.915Z,5.42
2023-08-19T18:34:10.423Z,5.81
2023-08-19T18:36:36.958Z,5.55
2023-08-19T18:39:03.471Z,5.45
2023-08-19T18:41:29.956Z,5.36
2023-08-19T18:43:56.454Z,5.30
2023-08-19T18:46:22.950Z,5.34
2023-08-19T18:48:49.449Z,5.03
2023-08-19T18:51:15.953Z,5.21
2023-08-19T18:53:42.541Z,5.19
2023-08-19T18:56:09.056Z,5.24
2023-08-19T18:58:35.547Z,5.24
2023-08-19T19:01:04.828Z,4.98
2023-08-19T19:03:32.808Z,5.13
2023-08-19T19:05:59.326Z,5.14
2023-08-19T19:08:25.821Z,5.33
2023-08-19T19:10:52.318Z,5.22
2023-08-19T19:13:18.848Z,5.22
2023-08-19T19:15:45.408Z,5.02
2023-08-19T19:18:11.941Z,5.36
2023-08-19T19:20:38.466Z,5.15
2023-08-19T19:23:04.961Z,4.87
2023-08-19T19:25:31.492Z,5.24
2023-08-19T19:27:58.004Z,4.96
2023-08-19T19:30:24.516Z,5.13
2023-08-19T19:32:51.047Z,4.94
2023-08-19T19:35:17.587Z,4.91
2023-08-19T19:37:44.168Z,4.88
2023-08-19T19:40:10.682Z,5.18
2023-08-19T19:42:37.233Z,4.92
2023-08-19T19:45:03.761Z,5.01
2023-08-19T19:47:30.327Z,5.17
2023-08-19T19:49:56.856Z,4.96
2023-08-19T19:52:23.329Z,4.91
2023-08-19T19:54:49.867Z,4.82
2023-08-19T19:57:16.367Z,4.74
2023-08-19T19:59:42.836Z,5.19
2023-08-19T20:02:09.439Z,4.74
2023-08-19T20:04:35.975Z,4.86
2023-08-19T20:07:02.519Z,4.72
2023-08-19T20:09:29.006Z,4.92
2023-08-19T20:11:55.494Z,4.86
2023-08-19T20:14:22.008Z,4.93
2023-08-19T20:16:48.490Z,4.97
2023-08-19T20:19:15.023Z,4.77
2023-08-19T20:21:41.525Z,5.02
2023-08-19T20:24:08.030Z,4.86
2023-08-19T20:26:34.542Z,5.10
2023-08-19T20:29:01.017Z,5.08
2023-08-19T20:31:27.550Z,4.89
2023-08-19T20:33:54.210Z,4.52
2023-08-19T20:36:20.730Z,5.01
2023-08-19T20:38:47.228Z,4.95
2023-08-19T20:41:13.737Z,5.01
2023-08-19T20:43:40.229Z,5.00
2023-08-19T20:46:06.770Z,4.87
2023-08-19T20:48:33.385Z,4.76
2023-08-19T20:50:59.865Z,4.55
2023-08-19T20:53:26.352Z,4.44
2023-08-19T20:55:52.885Z,4.65
2023-08-19T20:58:19.381Z,4.78
2023-08-19T21:00:45.883Z,4.80
2023-08-19T21:03:12.376Z,4.64
2023-08-19T21:05:38.865Z,4.77
2023-08-19T21:08:05.348Z,4.58
2023-08-19T21:10:31.851Z,4.51
2023-08-19T21:12:58.375Z,4.64
2023-08-19T21:15:24.875Z,4.77
2023-08-19T21:17:51.438Z,4.78
2023-08-19T21:20:17.947Z,5.02
2023-08-19T21:22:44.431Z,4.56
2023-08-19T21:25:10.939Z,4.63
2023-08-19T21:27:37.549Z,4.54
2023-08-19T21:30:04.043Z,4.56
2023-08-19T21:32:30.575Z,4.45
2023-08-19T21:34:57.079Z,4.77
2023-08-19T21:37:23.550Z,4.63
2023-08-19T21:39:50.072Z,4.56
2023-08-19T21:42:16.542Z,4.53
2023-08-19T21:44:43.036Z,4.77
2023-08-19T21:47:09.541Z,4.59
2023-08-19T21:49:36.039Z,4.58
2023-08-19T21:52:02.523Z,4.54
2023-08-19T21:54:29.022Z,4.75
2023-08-19T21:56:55.566Z,4.35
2023-08-19T21:59:22.052Z,4.57
2023-08-19T22:01:48.545Z,4.35
2023-08-19T22:04:15.028Z,4.46
2023-08-19T22:06:41.539Z,4.41
2023-08-19T22:09:08.070Z,4.63
2023-08-19T22:11:34.560Z,4.58
2023-08-19T22:14:01.052Z,4.39
2023-08-19T22:16:27.572Z,4.55
2023-08-19T22:18:54.068Z,4.33
2023-08-19T22:21:20.554Z,4.28
2023-08-19T22:24:15.936Z,4.50
2023-08-19T22:26:42.409Z,4.30
2023-08-19T22:29:08.896Z,4.58
2023-08-19T22:31:36.426Z,4.23
2023-08-19T22:34:03.038Z,4.15
2023-08-19T22:36:29.541Z,4.19
2023-08-19T22:38:56.071Z,3.91
2023-08-19T22:41:22.548Z,4.06
2023-08-19T22:43:49.033Z,3.88
2023-08-19T22:46:15.559Z,4.06
2023-08-19T22:48:42.079Z,4.29
2023-08-19T22:51:08.560Z,4.27
2023-08-19T22:53:35.071Z,4.18
2023-08-19T22:56:01.583Z,4.36
2023-08-19T22:58:28.100Z,3.90
2023-08-19T23:00:54.612Z,3.77
2023-08-19T23:03:21.197Z,3.96
2023-08-19T23:05:47.679Z,4.26
2023-08-19T23:08:14.185Z,4.21
2023-08-19T23:10:40.687Z,4.57
2023-08-19T23:13:07.160Z,4.58
2023-08-19T23:15:33.676Z,4.23
2023-08-19T23:18:00.239Z,4.17
2023-08-19T23:20:26.726Z,4.36
2023-08-19T23:22:53.216Z,4.49
2023-08-19T23:25:19.713Z,4.21
2023-08-19T23:27:46.207Z,4.15
2023-08-19T23:30:12.722Z,3.68
2023-08-19T23:32:39.236Z,3.74
2023-08-19T23:35:05.822Z,4.32
2023-08-19T23:37:32.418Z,4.30
2023-08-19T23:39:59.248Z,4.19
2023-08-19T23:42:25.754Z,4.00
2023-08-19T23:44:52.250Z,4.47
2023-08-19T23:47:18.741Z,4.34
2023-08-19T23:49:45.225Z,4.33
2023-08-19T23:52:11.737Z,4.08
2023-08-19T23:54:38.261Z,4.11
2023-08-19T23:57:04.741Z,4.21
2023-08-19T23:59:31.271Z,4.24
